createdAt,value
2018-06-02T00:00:55.353Z,95703
2018-06-02T00:03:32.724Z,95700
2018-06-02T00:09:23.772Z,95696
2018-06-02T00:12:00.331Z,95702
2018-06-02T00:17:50.854Z,95700
2018-06-02T00:20:28.053Z,95698
2018-06-02T00:23:04.513Z,95695
2018-06-02T00:28:53.792Z,95693
2018-06-02T00:31:30.572Z,95692
2018-06-02T00:34:07.428Z,95694
2018-06-02T00:36:43.844Z,95692
2018-06-02T00:39:21.608Z,95684
2018-06-02T00:45:13.053Z,95677
2018-06-02T00:47:49.455Z,95674
2018-06-02T00:50:26.172Z,95675
2018-06-02T00:56:16.588Z,95681
2018-06-02T00:58:52.972Z,95685
2018-06-02T01:01:30.581Z,95686
2018-06-02T01:04:07.015Z,95689
2018-06-02T01:06:44.840Z,95688
2018-06-02T01:09:21.489Z,95687
2018-06-02T01:15:11.514Z,95686
2018-06-02T01:17:48.592Z,95678
2018-06-02T01:20:25.252Z,95665
2018-06-02T01:23:01.840Z,95681
2018-06-02T01:25:38.492Z,95678
2018-06-02T01:28:14.855Z,95678
2018-06-02T01:30:52.561Z,95680
2018-06-02T01:33:29.228Z,95679
2018-06-02T01:36:06.737Z,95672
2018-06-02T01:41:56.724Z,95670
2018-06-02T01:44:33.395Z,95672
2018-06-02T01:47:10.271Z,95669
2018-06-02T01:49:46.652Z,95672
2018-06-02T01:55:36.959Z,95673
2018-06-02T01:58:13.532Z,95670
2018-06-02T02:00:50.612Z,95669
2018-06-02T02:06:40.922Z,95669
2018-06-02T02:09:17.812Z,95663
2018-06-02T02:11:55.188Z,95665
2018-06-02T02:17:46.041Z,95668
2018-06-02T02:20:23.319Z,95666
2018-06-02T02:23:00.191Z,95671
2018-06-02T02:25:38.180Z,95669
2018-06-02T02:31:28.281Z,95670
2018-06-02T02:34:04.756Z,95672
2018-06-02T02:36:41.152Z,95665
2018-06-02T02:39:18.212Z,95670
2018-06-02T02:41:55.274Z,95668
2018-06-02T02:44:32.054Z,95659
2018-06-02T02:47:09.034Z,95660
2018-06-02T02:49:45.510Z,95660
2018-06-02T02:52:22.072Z,95661
2018-06-02T02:58:13.103Z,95657
2018-06-02T03:00:50.805Z,95659
2018-06-02T03:03:27.271Z,95662
2018-06-02T03:09:16.870Z,95665
2018-06-02T03:11:53.229Z,95671
2018-06-02T03:14:29.639Z,95668
2018-06-02T03:17:06.170Z,95677
2018-06-02T03:22:57.204Z,95680
2018-06-02T03:25:34.393Z,95680
2018-06-02T03:28:10.783Z,95676
2018-06-02T03:34:06.294Z,95681
2018-06-02T03:37:08.665Z,95683
2018-06-02T03:40:11.756Z,95686
2018-06-02T03:42:54.570Z,95686
2018-06-02T03:45:34.330Z,95685
2018-06-02T03:48:13.445Z,95686
2018-06-02T03:54:04.162Z,95688
2018-06-02T03:56:40.426Z,95688
2018-06-02T04:02:30.736Z,95686
2018-06-02T04:05:07.096Z,95681
2018-06-02T04:07:44.446Z,95681
2018-06-02T04:10:22.190Z,95686
2018-06-02T04:12:58.351Z,95687
2018-06-02T04:18:49.888Z,95677
2018-06-02T04:21:26.466Z,95682
2018-06-02T04:24:02.834Z,95686
2018-06-02T04:26:40.017Z,95689
2018-06-02T04:29:16.489Z,95688
2018-06-02T04:31:53.563Z,95692
2018-06-02T04:34:30.366Z,95692
2018-06-02T04:37:06.599Z,95696
2018-06-02T04:42:59.409Z,95689
2018-06-02T04:45:35.954Z,95692
2018-06-02T04:51:25.733Z,95692
2018-06-02T04:54:03.143Z,95695
2018-06-02T04:56:40.003Z,95697
2018-06-02T04:59:17.208Z,95695
2018-06-02T05:01:53.565Z,95699
2018-06-02T05:04:32.686Z,95703
2018-06-02T05:07:09.366Z,95704
2018-06-02T05:09:46.436Z,95698
2018-06-02T05:12:23.447Z,95703
2018-06-02T05:15:01.734Z,95700
2018-06-02T05:17:38.310Z,95692
2018-06-02T05:23:29.230Z,95685
2018-06-02T05:26:07.648Z,95684
2018-06-02T05:28:46.783Z,95696
2018-06-02T05:31:24.568Z,95703
2018-06-02T05:37:14.882Z,95708
2018-06-02T05:39:52.175Z,95703
2018-06-02T05:42:28.530Z,95704
2018-06-02T05:45:04.902Z,95700
2018-06-02T05:47:41.058Z,95699
2018-06-02T05:50:18.163Z,95698
2018-06-02T05:52:54.820Z,95705
2018-06-02T05:55:31.525Z,95700
2018-06-02T05:58:07.662Z,95702
2018-06-02T06:03:58.683Z,95695
2018-06-02T06:06:35.105Z,95692
2018-06-02T06:09:11.616Z,95692
2018-06-02T06:11:48.216Z,95683
2018-06-02T06:14:24.450Z,95691
2018-06-02T06:17:01.834Z,95691
2018-06-02T06:19:38.365Z,95688
2018-06-02T06:22:14.576Z,95691
2018-06-02T06:24:51.955Z,95691
2018-06-02T06:27:28.330Z,95689
2018-06-02T06:30:05.199Z,95689
2018-06-02T06:32:41.775Z,95692
2018-06-02T06:38:31.271Z,95683
2018-06-02T06:41:07.844Z,95680
2018-06-02T06:43:45.745Z,95682
2018-06-02T06:49:36.460Z,95677
2018-06-02T06:52:13.238Z,95676
2018-06-02T06:54:49.780Z,95679
2018-06-02T07:00:40.530Z,95682
2018-06-02T07:03:16.825Z,95676
2018-06-02T07:05:53.350Z,95674
2018-06-02T07:08:29.730Z,95670
2018-06-02T07:11:06.444Z,95671
2018-06-02T07:13:43.689Z,95672
2018-06-02T07:19:34.008Z,95668
2018-06-02T07:22:10.690Z,95665
2018-06-02T07:24:47.291Z,95668
2018-06-02T07:30:37.771Z,95658
2018-06-02T07:33:15.164Z,95658
2018-06-02T07:39:05.877Z,95663
2018-06-02T07:41:43.273Z,95669
2018-06-02T07:47:35.727Z,95667
2018-06-02T07:50:11.898Z,95665
2018-06-02T07:56:02.622Z,95656
2018-06-02T07:58:39.385Z,95659
2018-06-02T08:01:15.632Z,95655
2018-06-02T08:07:07.183Z,95660
2018-06-02T08:09:43.649Z,95662
2018-06-02T08:15:34.066Z,95657
2018-06-02T08:18:10.533Z,95660
2018-06-02T08:24:01.670Z,95657
2018-06-02T08:26:38.395Z,95652
2018-06-02T08:29:14.609Z,95653
2018-06-02T08:35:04.506Z,95654
2018-06-02T08:37:41.593Z,95656
2018-06-02T08:40:18.874Z,95658
2018-06-02T08:42:55.238Z,95651
2018-06-02T08:45:32.846Z,95653
2018-06-02T08:48:09.304Z,95646
2018-06-02T08:53:59.103Z,95648
2018-06-02T08:56:36.172Z,95644
2018-06-02T08:59:12.544Z,95643
2018-06-02T09:01:48.808Z,95641
2018-06-02T09:04:26.008Z,95643
2018-06-02T09:07:02.667Z,95636
2018-06-02T09:09:39.147Z,95635
2018-06-02T09:12:15.597Z,95634
2018-06-02T09:14:52.179Z,95635
2018-06-02T09:20:43.617Z,95619
2018-06-02T09:23:21.013Z,95614
2018-06-02T09:25:57.478Z,95618
2018-06-02T09:28:33.953Z,95624
2018-06-02T09:31:10.723Z,95617
2018-06-02T09:33:47.803Z,95610
2018-06-02T09:36:24.980Z,95608
2018-06-02T09:42:15.288Z,95596
2018-06-02T09:44:51.554Z,95592
2018-06-02T09:47:28.842Z,95592
2018-06-02T09:50:06.536Z,95590
2018-06-02T09:52:43.113Z,95578
2018-06-02T09:55:19.797Z,95575
2018-06-02T09:57:57.375Z,95570
2018-06-02T10:03:47.372Z,95563
2018-06-02T10:06:24.152Z,95559
2018-06-02T10:12:14.978Z,95556
2018-06-02T10:14:51.660Z,95545
2018-06-02T10:20:42.277Z,95549
2018-06-02T10:23:18.845Z,95543
2018-06-02T10:25:55.209Z,95539
2018-06-02T10:28:31.367Z,95540
2018-06-02T10:31:08.568Z,95533
2018-06-02T10:33:45.027Z,95530
2018-06-02T10:36:21.455Z,95522
2018-06-02T10:38:58.568Z,95516
2018-06-02T10:41:34.943Z,95517
2018-06-02T10:44:12.223Z,95519
2018-06-02T10:46:48.672Z,95517
2018-06-02T10:49:25.978Z,95517
2018-06-02T10:52:02.346Z,95514
2018-06-02T10:54:39.947Z,95513
2018-06-02T10:57:17.029Z,95511
2018-06-02T10:59:54.010Z,95510
2018-06-02T11:02:31.803Z,95507
2018-06-02T11:08:23.240Z,95499
2018-06-02T11:11:00.530Z,95491
2018-06-02T11:13:38.225Z,95484
2018-06-02T11:16:16.325Z,95483
2018-06-02T11:18:52.899Z,95488
2018-06-02T11:24:43.002Z,95477
2018-06-02T11:27:19.174Z,95465
2018-06-02T11:33:10.393Z,95453
2018-06-02T11:35:46.990Z,95450
2018-06-02T11:38:23.440Z,95449
2018-06-02T11:41:00.624Z,95442
2018-06-02T11:43:38.842Z,95441
2018-06-02T11:46:15.010Z,95436
2018-06-02T11:52:07.052Z,95423
2018-06-02T11:54:43.407Z,95420
2018-06-02T11:57:19.779Z,95420
2018-06-02T11:59:57.277Z,95425
2018-06-02T12:02:34.668Z,95433
2018-06-02T12:08:25.386Z,95433
2018-06-02T12:11:01.731Z,95427
2018-06-02T12:16:51.750Z,95425
2018-06-02T12:19:28.936Z,95417
2018-06-02T12:22:05.300Z,95415
2018-06-02T12:24:41.560Z,95415
2018-06-02T12:27:20.439Z,95416
2018-06-02T12:33:11.305Z,95416
2018-06-02T12:35:47.788Z,95408
2018-06-02T12:38:25.037Z,95404
2018-06-02T12:41:04.200Z,95417
2018-06-02T12:43:44.144Z,95414
2018-06-02T12:46:23.294Z,95418
2018-06-02T12:48:59.540Z,95422
2018-06-02T12:54:50.471Z,95400
2018-06-02T12:57:26.835Z,95400
2018-06-02T13:00:03.412Z,95400
2018-06-02T13:02:39.980Z,95396
2018-06-02T13:05:16.345Z,95401
2018-06-02T13:07:53.721Z,95403
2018-06-02T13:10:31.006Z,95398
2018-06-02T13:13:08.500Z,95396
2018-06-02T13:18:58.310Z,95393
2018-06-02T13:21:36.710Z,95396
2018-06-02T13:27:27.536Z,95411
2018-06-02T13:30:03.916Z,95414
2018-06-02T13:32:43.250Z,95415
2018-06-02T13:35:21.670Z,95417
2018-06-02T13:37:58.016Z,95421
2018-06-02T13:43:48.029Z,95441
2018-06-02T13:46:25.428Z,95440
2018-06-02T13:52:18.491Z,95454
2018-06-02T13:54:58.959Z,95455
2018-06-02T13:57:37.133Z,95451
2018-06-02T14:00:13.318Z,95452
2018-06-02T14:06:04.246Z,95448
2018-06-02T14:08:41.638Z,95443
2018-06-02T14:14:32.669Z,95465
2018-06-02T14:17:09.241Z,95473
2018-06-02T14:19:46.019Z,95474
2018-06-02T14:22:23.090Z,95477
2018-06-02T14:25:00.991Z,95476
2018-06-02T14:27:37.568Z,95474
2018-06-02T14:30:14.347Z,95472
2018-06-02T14:32:51.643Z,95479
2018-06-02T14:38:42.666Z,95492
2018-06-02T14:41:19.230Z,95495
2018-06-02T14:43:56.528Z,95492
2018-06-02T14:46:34.419Z,95496
2018-06-02T14:49:11.303Z,95499
2018-06-02T14:51:49.319Z,95497
2018-06-02T14:54:25.792Z,95502
2018-06-02T15:00:16.893Z,95497
2018-06-02T15:02:54.093Z,95495
2018-06-02T15:08:45.216Z,95493
2018-06-02T15:11:23.324Z,95484
2018-06-02T15:13:59.698Z,95481
2018-06-02T15:16:36.562Z,95484
2018-06-02T15:19:13.138Z,95486
2018-06-02T15:25:03.978Z,95476
2018-06-02T15:27:41.984Z,95482
2018-06-02T15:30:18.944Z,95483
2018-06-02T15:32:55.629Z,95479
2018-06-02T15:38:49.301Z,95478
2018-06-02T15:41:26.794Z,95477
2018-06-02T15:47:17.215Z,95493
2018-06-02T15:49:53.681Z,95501
2018-06-02T15:52:29.944Z,95498
2018-06-02T15:55:06.521Z,95491
2018-06-02T15:57:44.103Z,95484
2018-06-02T16:00:21.401Z,95489
2018-06-02T16:06:11.701Z,95495
2018-06-02T16:08:48.284Z,95506
2018-06-02T16:11:29.261Z,95502
2018-06-02T16:14:05.822Z,95493
2018-06-02T16:19:56.955Z,95486
2018-06-02T16:22:34.651Z,95498
2018-06-02T16:25:11.014Z,95499
2018-06-02T16:31:01.299Z,95503
2018-06-02T16:33:42.128Z,95505
2018-06-02T16:36:18.447Z,95507
2018-06-02T16:42:08.459Z,95511
2018-06-02T16:44:45.152Z,95514
2018-06-02T16:50:35.156Z,95511
2018-06-02T16:53:11.724Z,95508
2018-06-02T16:55:48.039Z,95507
2018-06-02T17:01:39.014Z,95504
2018-06-02T17:04:16.603Z,95493
2018-06-02T17:06:53.075Z,95493
2018-06-02T17:12:43.392Z,95501
2018-06-02T17:15:19.641Z,95496
2018-06-02T17:17:56.540Z,95489
2018-06-02T17:20:33.602Z,95487
2018-06-02T17:26:23.198Z,95496
2018-06-02T17:29:00.990Z,95504
2018-06-02T17:31:38.193Z,95503
2018-06-02T17:34:14.892Z,95503
2018-06-02T17:36:51.629Z,95505
2018-06-02T17:42:42.452Z,95520
2018-06-02T17:45:19.224Z,95532
2018-06-02T17:47:56.025Z,95539
2018-06-02T17:53:50.408Z,95543
2018-06-02T17:56:27.113Z,95539
2018-06-02T17:59:03.970Z,95540
2018-06-02T18:01:40.360Z,95535
2018-06-02T18:07:30.847Z,95531
2018-06-02T18:10:07.936Z,95532
2018-06-02T18:12:44.778Z,95536
2018-06-02T18:15:21.325Z,95537
2018-06-02T18:21:13.531Z,95551
2018-06-02T18:23:49.591Z,95547
2018-06-02T18:29:39.999Z,95553
2018-06-02T18:32:16.983Z,95557
2018-06-02T18:38:07.516Z,95565
2018-06-02T18:40:43.871Z,95565
2018-06-02T18:43:20.139Z,95570
2018-06-02T18:45:57.310Z,95571
2018-06-02T18:48:34.083Z,95566
2018-06-02T18:51:10.450Z,95568
2018-06-02T18:53:47.747Z,95562
2018-06-02T18:56:24.745Z,95565
2018-06-02T18:59:00.883Z,95570
2018-06-02T19:01:38.064Z,95564
2018-06-02T19:04:15.396Z,95563
2018-06-02T19:06:53.351Z,95565
2018-06-02T19:09:29.837Z,95575
2018-06-02T19:15:19.560Z,95577
2018-06-02T19:17:57.134Z,95570
2018-06-02T19:20:34.199Z,95571
2018-06-02T19:26:24.403Z,95577
2018-06-02T19:29:03.745Z,95586
2018-06-02T19:31:39.904Z,95585
2018-06-02T19:37:29.500Z,95578
2018-06-02T19:40:05.801Z,95588
2018-06-02T19:42:42.262Z,95585
2018-06-02T19:45:19.937Z,95589
2018-06-02T19:47:56.309Z,95591
2018-06-02T19:50:36.138Z,95587
2018-06-02T19:53:15.278Z,95588
2018-06-02T19:55:52.869Z,95584
2018-06-02T19:58:29.353Z,95589
2018-06-02T20:04:20.260Z,95594
2018-06-02T20:06:59.398Z,95599
2018-06-02T20:09:37.813Z,95596
2018-06-02T20:15:28.019Z,95598
2018-06-02T20:18:05.506Z,95599
2018-06-02T20:20:43.725Z,95595
2018-06-02T20:23:20.430Z,95597
2018-06-02T20:29:09.896Z,95604
2018-06-02T20:31:46.252Z,95610
2018-06-02T20:34:22.925Z,95614
2018-06-02T20:37:01.740Z,95622
2018-06-02T20:39:38.219Z,95623
2018-06-02T20:45:33.441Z,95627
2018-06-02T20:48:11.648Z,95625
2018-06-02T20:50:49.143Z,95636
2018-06-02T20:53:26.235Z,95639
2018-06-02T20:59:16.237Z,95646
2018-06-02T21:01:53.337Z,95651
2018-06-02T21:04:29.902Z,95657
2018-06-02T21:10:20.905Z,95665
2018-06-02T21:12:57.887Z,95661
2018-06-02T21:15:35.176Z,95663
2018-06-02T21:18:15.033Z,95662
2018-06-02T21:24:08.215Z,95667
2018-06-02T21:26:52.868Z,95668
2018-06-02T21:29:29.136Z,95664
2018-06-02T21:35:20.210Z,95670
2018-06-02T21:37:56.610Z,95673
2018-06-02T21:40:32.788Z,95674
2018-06-02T21:43:09.447Z,95678
2018-06-02T21:45:45.921Z,95673
2018-06-02T21:51:36.025Z,95673
2018-06-02T21:54:12.605Z,95672
2018-06-02T21:56:49.000Z,95672
2018-06-02T21:59:26.359Z,95674
2018-06-02T22:02:02.833Z,95664
2018-06-02T22:04:39.200Z,95670
2018-06-02T22:07:15.560Z,95664
2018-06-02T22:13:05.858Z,95669
2018-06-02T22:15:43.451Z,95670
2018-06-02T22:21:35.504Z,95677
2018-06-02T22:24:11.875Z,95670
2018-06-02T22:26:49.165Z,95676
2018-06-02T22:29:25.661Z,95681
2018-06-02T22:32:02.950Z,95681
2018-06-02T22:34:40.300Z,95687
2018-06-02T22:37:16.775Z,95684
2018-06-02T22:39:53.029Z,95675
2018-06-02T22:42:33.813Z,95677
2018-06-02T22:45:10.271Z,95682
2018-06-02T22:51:00.798Z,95677
2018-06-02T22:53:39.322Z,95675
2018-06-02T22:56:16.499Z,95676
2018-06-02T22:58:53.163Z,95676
2018-06-02T23:01:30.549Z,95676
2018-06-02T23:08:07.246Z,95668.00
2018-06-02T23:10:47.969Z,95663.00
2018-06-02T23:13:27.051Z,95665.00
2018-06-02T23:16:07.517Z,95666.00
2018-06-02T23:18:46.698Z,95662.00
2018-06-02T23:21:25.772Z,95665.00
2018-06-02T23:24:05.412Z,95665.00
2018-06-02T23:26:44.537Z,95669.00
2018-06-02T23:29:23.579Z,95666.00
2018-06-02T23:32:09.165Z,95668.00
2018-06-02T23:34:51.663Z,95668.00
2018-06-02T23:37:32.744Z,95665.00
2018-06-02T23:40:11.872Z,95664.00
2018-06-02T23:42:51.029Z,95664.00
2018-06-02T23:45:30.039Z,95672.00
2018-06-02T23:48:09.191Z,95666.00
2018-06-02T23:50:47.485Z,95666.00
2018-06-02T23:53:26.500Z,95668.00
2018-06-02T23:56:05.880Z,95666.00
2018-06-02T23:58:45.275Z,95667.00
